Airfield :
LOGIN :

Register | Disclaimer

   EN    FR    IT 

 










Legend :    VFR   Marginal VFR   IFR   Intensive IFR   Very Intensive IFR
Visi :
Ceiling :
>= 8 km
>= 3000ft
5 to 8 km
1000 to 3000 ft
1500m to 5 km
500 to 1000 ft
800 to 1500m
200 to 500 ft
< 800m
< 200 ft
Symbols :   Thunderstorms  Fog  Heavy snow  Heavy precipitations  Wind > 20 kt
SIGMETs :     Misc.  Thunderstorms  Icing  Turbulence  Mountain Waves  Volcanic Ashes






- Airport Elevation : 1910 ft
- IATA code : RDZ


LFCR - Rodez

CURRENT METAR :
  • 122030Z AUTO 24005KT 9999 BKN008/// OVC025/// ///TCU 06/05 Q1006 BECMG 4000 BR BKN003

EXPIRED METARs :
  • 122000Z AUTO 27006KT 9999 FEW007 SCT034 BKN052 05/05 Q1006 TEMPO 3000 SHRA BKN004 SCT015TCU
  • 121930Z AUTO 26006KT 9999 FEW010 SCT020 BKN026 06/05 Q1006 TEMPO 3000 SHRA BKN004 SCT015TCU
  • 121900Z AUTO 29006KT 9999 BKN009 OVC016 06/05 Q1006 TEMPO 3000 SHRA BKN004 SCT015TCU
  • 121830Z AUTO 28005KT 9999 BKN008 OVC014 06/05 Q1006 TEMPO 3000 SHRA BKN004 SCT015TCU
  • 121800Z AUTO 31003KT 9999 BKN008 BKN013 OVC018 06/05 Q1007 TEMPO 3000 SHRA BKN004 SCT015TCU

TAF AMD TAF LFCR
Valid from the 12 at 19:00 until the 13 at 18:00 UTC


121950Z 1219/1318 31005KT 9999 BKN020
PROB40
TEMPO 1219/1222 3000 SHRA BKN004 SCT015TCU
BECMG 1222/1224 4000 BR BKN003
TEMPO 1300/1307 VRB02KT 0500 FG VV///
BECMG 1308/1310 9999 NSW BKN006
BECMG 1310/1312 SCT012



MET'MAP, your aeronautical weather chart ! - Copyright ORBIFLY December 2007 - Disclaimer

ORBIFLY MET'MAP TEAM :

Programming & Development : Alexandra Zaïnal
Concept & Development : Baudouin d'Aumeries
Co-Development & Prog : Marc-Olivier Méhu
Technical & hardware support : Manuel Goepfert

Contact : metmap@orbifly.com




SOURCES & CREDITS :

   NOAA